Time;durP1;ratioP1;P1;durP2;ratioP2;P2;SDS_P1;SDS_P2;PMS_P1;PMS_P2;Temp;Humidity;BMP_temperature;BMP_pressure;BME280_temperature;BME280_humidity;BME280_pressure;Samples;Min_cycle;Max_cycle;Signal;HPM_P1;HPM_P2
2022/06/04 00:00:22;;;;;;;6.37;2.07;;;;;;;-145.18;100.00;47334.34;4993601;28;20109;-77
2022/06/04 00:02:49;;;;;;;6.30;2.20;;;;;;;-145.18;100.00;47305.06;4992904;28;20026;-76
2022/06/04 00:05:17;;;;;;;3.77;1.80;;;;;;;-145.18;100.00;47340.22;5011814;28;20072;-77
2022/06/04 00:07:43;;;;;;;4.17;2.00;;;;;;;-145.18;100.00;47338.25;5012457;28;20072;-76
2022/06/04 00:15:42;;;;;;;5.67;2.17;;;;;;;-145.18;100.00;47353.88;5012835;28;20462;-77
2022/06/04 00:18:08;;;;;;;2.60;1.77;;;;;;;-145.18;100.00;47385.16;4994623;28;20030;-77
2022/06/04 00:20:33;;;;;;;3.97;1.83;;;;;;;-145.18;100.00;47355.84;5012477;28;20507;-77
2022/06/04 00:23:04;;;;;;;6.53;2.23;;;;;;;-145.18;100.00;47371.47;5012234;28;20030;-77
2022/06/04 00:25:31;;;;;;;6.37;2.33;;;;;;;-145.18;100.00;47365.63;5012232;28;20053;-76
2022/06/04 00:27:58;;;;;;;3.13;2.00;;;;;;;-145.18;100.00;47385.16;5011640;28;20570;-77
2022/06/04 00:30:23;;;;;;;3.33;2.13;;;;;;;-145.18;100.00;47375.38;5012405;28;20541;-77
2022/06/04 00:32:49;;;;;;;3.03;1.97;;;;;;;-145.18;100.00;47361.72;4994194;28;20042;-77
2022/06/04 00:35:15;;;;;;;3.80;2.20;;;;;;;-145.18;100.00;47365.63;5012040;28;20030;-77
2022/06/04 00:37:41;;;;;;;3.90;2.27;;;;;;;-145.18;100.00;47332.41;5011927;28;20037;-77
2022/06/04 00:40:09;;;;;;;3.87;2.30;;;;;;;-145.18;100.00;47355.84;5011868;28;20387;-77
2022/06/04 00:42:34;;;;;;;3.83;2.03;;;;;;;-145.18;100.00;47359.75;5011602;28;20033;-77
2022/06/04 00:45:34;;;;;;;5.90;2.40;;;;;;;-145.18;100.00;47301.16;5011931;28;20034;-77
2022/06/04 00:48:01;;;;;;;4.20;2.13;;;;;;;-145.18;100.00;47330.44;5011355;28;20065;-77
2022/06/04 00:50:29;;;;;;;2.97;2.37;;;;;;;-145.18;100.00;47346.06;5011895;28;20048;-77
2022/06/04 00:52:58;;;;;;;4.70;2.53;;;;;;;-145.18;100.00;47246.44;5011122;28;20068;-77
2022/06/04 00:55:24;;;;;;;5.27;2.20;;;;;;;-145.18;100.00;47244.50;5011677;28;20037;-77
2022/06/04 00:58:18;;;;;;;5.03;2.47;;;;;;;-145.18;100.00;47047.19;4993985;28;20125;-77
2022/06/04 01:00:53;;;;;;;3.30;2.40;;;;;;;-145.18;100.00;47180.03;5011758;28;20092;-77
2022/06/04 01:03:44;;;;;;;4.28;2.28;;;;;;;-145.18;100.00;47211.28;5011286;28;20050;-77
2022/06/04 01:06:25;;;;;;;5.40;2.40;;;;;;;-145.18;100.00;47109.69;5011481;28;20046;-77
2022/06/04 01:09:00;;;;;;;5.77;2.43;;;;;;;-145.18;100.00;46955.34;5011466;28;20072;-76
2022/06/04 01:12:11;;;;;;;4.30;2.97;;;;;;;-145.18;100.00;46933.88;5011291;28;20425;-76
2022/06/04 01:15:09;;;;;;;4.47;2.60;;;;;;;-145.18;100.00;46933.88;5011523;28;20030;-77
2022/06/04 01:18:03;;;;;;;9.40;2.87;;;;;;;-145.18;100.00;47019.81;5011086;28;20034;-77
2022/06/04 01:20:47;;;;;;;6.07;2.90;;;;;;;-145.18;100.00;46820.56;5011226;28;20032;-76
2022/06/04 01:23:32;;;;;;;8.37;2.90;;;;;;;-145.18;100.00;46797.13;5011263;28;20030;-77
2022/06/04 01:26:22;;;;;;;4.73;2.90;;;;;;;-145.18;100.00;46795.19;4993154;28;20491;-76
2022/06/04 01:28:52;;;;;;;4.67;2.87;;;;;;;-145.18;100.00;46744.38;5011174;28;20101;-77
2022/06/04 01:31:23;;;;;;;4.97;2.70;;;;;;;-145.18;100.00;46728.75;5011055;28;20105;-77
2022/06/04 01:33:57;;;;;;;5.93;2.80;;;;;;;-145.18;100.00;46691.66;5010681;28;20433;-75
2022/06/04 01:36:29;;;;;;;4.13;2.83;;;;;;;-145.18;100.00;46711.19;5010779;28;20072;-76
2022/06/04 01:39:09;;;;;;;5.57;2.80;;;;;;;-145.18;100.00;46699.47;5011064;28;20037;-76
2022/06/04 01:41:42;;;;;;;5.63;3.10;;;;;;;-145.18;100.00;46697.50;5010890;28;20141;-75
2022/06/04 01:44:16;;;;;;;4.60;3.17;;;;;;;-145.18;100.00;46699.47;4994075;28;20033;-76
2022/06/04 01:46:51;;;;;;;5.77;3.13;;;;;;;-145.18;100.00;46707.28;5010459;28;20042;-75
2022/06/04 01:49:29;;;;;;;8.77;3.40;;;;;;;-145.18;100.00;46670.16;5011166;28;20029;-75
2022/06/04 01:52:18;;;;;;;5.70;4.10;;;;;;;-145.18;100.00;46689.69;5010236;28;20030;-75
2022/06/04 01:54:51;;;;;;;7.07;3.20;;;;;;;-145.18;100.00;46689.69;5010851;28;20087;-75
2022/06/04 01:57:22;;;;;;;7.80;3.10;;;;;;;-145.18;100.00;46666.25;5010601;28;20410;-75
2022/06/04 01:59:54;;;;;;;4.53;3.10;;;;;;;-145.18;100.00;46670.16;5010539;28;20061;-74
2022/06/04 02:02:26;;;;;;;5.40;3.30;;;;;;;-145.18;100.00;46697.50;5349399;23;20466;-77
2022/06/04 02:04:56;;;;;;;3.83;3.10;;;;;;;-145.18;100.00;46715.09;5005926;28;20417;-77
2022/06/04 02:07:31;;;;;;;7.87;3.30;;;;;;;-145.18;100.00;46701.41;5029237;28;20493;-77
2022/06/04 02:09:59;;;;;;;9.00;3.33;;;;;;;-145.18;100.00;46693.59;5030011;28;20037;-77
2022/06/04 02:12:25;;;;;;;6.70;3.50;;;;;;;-145.18;100.00;46666.25;5029672;28;20037;-78
2022/06/04 02:14:51;;;;;;;7.03;3.60;;;;;;;-145.18;100.00;46681.88;5027207;28;20030;-78
2022/06/04 02:17:21;;;;;;;9.00;3.23;;;;;;;-145.18;100.00;46693.59;5029573;28;20490;-77
2022/06/04 02:19:47;;;;;;;5.37;3.07;;;;;;;-145.18;100.00;46689.69;5030325;28;20025;-77
2022/06/04 02:22:12;;;;;;;8.43;3.70;;;;;;;-145.18;100.00;46695.56;5029507;28;20057;-77
2022/06/04 02:24:38;;;;;;;6.73;3.13;;;;;;;-145.18;100.00;46683.84;5030527;28;20061;-76
2022/06/04 02:27:06;;;;;;;5.73;3.43;;;;;;;-145.18;100.00;46681.88;5029373;28;20148;-75
2022/06/04 02:29:33;;;;;;;7.37;3.47;;;;;;;-145.18;100.00;46693.59;5030477;28;20041;-76
2022/06/04 02:32:14;;;;;;;7.00;3.60;;;;;;;-145.18;100.00;46691.66;5029855;28;20484;-76
2022/06/04 02:35:10;;;;;;;7.50;3.50;;;;;;;-145.18;100.00;46679.94;5033674;28;20036;-75
2022/06/04 02:37:44;;;;;;;8.05;3.78;;;;;;;-145.18;100.00;46687.75;5028993;28;20041;-75
2022/06/04 02:40:18;;;;;;;8.97;3.57;;;;;;;-145.18;100.00;46664.31;5033961;28;20025;-76
2022/06/04 02:43:18;;;;;;;5.90;3.80;;;;;;;-145.18;100.00;46677.97;5033979;28;20509;-76
2022/06/04 02:45:56;;;;;;;7.07;3.50;;;;;;;-145.18;100.00;46683.84;4991266;28;20041;-76
2022/06/04 02:48:38;;;;;;;7.10;3.77;;;;;;;-145.18;100.00;46679.94;5033716;28;20048;-76
2022/06/04 02:51:29;;;;;;;5.33;3.33;;;;;;;-145.18;100.00;46666.25;5033875;28;20041;-76
2022/06/04 02:53:56;;;;;;;5.63;3.57;;;;;;;-145.18;100.00;46687.75;5033186;28;20470;-76
2022/06/04 02:56:30;;;;;;;5.77;3.50;;;;;;;-145.18;100.00;46679.94;5033890;28;20038;-76
2022/06/04 02:59:00;;;;;;;6.90;3.67;;;;;;;-145.18;100.00;46679.94;5033549;28;20485;-76
2022/06/04 03:01:28;;;;;;;7.40;3.87;;;;;;;-145.18;100.00;46683.84;5027805;28;20040;-76
2022/06/04 03:03:54;;;;;;;6.63;3.80;;;;;;;-145.18;100.00;46666.25;5010688;28;20118;-76
2022/06/04 03:06:32;;;;;;;7.83;4.03;;;;;;;-145.18;100.00;46658.44;5013773;28;20113;-76
2022/06/04 03:09:03;;;;;;;8.90;4.10;;;;;;;-145.18;100.00;46666.25;5013465;28;20030;-76
2022/06/04 03:11:29;;;;;;;11.20;3.80;;;;;;;-145.18;100.00;46685.78;5013942;28;20386;-75
2022/06/04 03:13:54;;;;;;;8.07;3.80;;;;;;;-145.18;100.00;46676.03;5013425;28;20042;-76
2022/06/04 03:16:20;;;;;;;5.67;4.13;;;;;;;-145.18;100.00;46687.75;5013509;28;20033;-76
2022/06/04 03:18:46;;;;;;;8.77;3.70;;;;;;;-145.18;100.00;46670.16;5013303;28;20040;-76
2022/06/04 03:21:11;;;;;;;6.87;3.90;;;;;;;-145.18;100.00;46664.31;5013488;28;20038;-76
2022/06/04 03:23:37;;;;;;;9.10;3.50;;;;;;;-145.18;100.00;46652.59;5013515;28;20050;-76
2022/06/04 03:26:04;;;;;;;7.23;4.37;;;;;;;-145.18;100.00;46662.34;5013223;28;20040;-76
2022/06/04 03:28:29;;;;;;;8.83;4.27;;;;;;;-145.18;100.00;46652.59;5013162;28;20609;-76
2022/06/04 03:30:55;;;;;;;6.27;4.27;;;;;;;-145.18;100.00;46642.81;5013354;28;20034;-76
2022/06/04 03:33:21;;;;;;;8.07;3.80;;;;;;;-145.18;100.00;46615.47;5013028;28;20038;-76
2022/06/04 03:35:46;;;;;;;7.90;4.73;;;;;;;-145.18;100.00;46635.00;4995601;28;20113;-76
2022/06/04 03:38:11;;;;;;;6.57;4.73;;;;;;;-145.18;100.00;46609.59;5013074;28;20101;-76
2022/06/04 03:40:37;;;;;;;7.80;4.17;;;;;;;-145.18;100.00;46629.13;5013341;28;20037;-76
2022/06/04 03:43:02;;;;;;;7.30;4.23;;;;;;;-145.18;100.00;46609.59;5012883;28;20037;-76
2022/06/04 03:45:28;;;;;;;6.60;4.13;;;;;;;-145.18;100.00;46599.84;5012620;28;20119;-75
2022/06/04 03:47:55;;;;;;;6.63;4.00;;;;;;;-145.18;100.00;46615.47;5012350;28;20034;-74
2022/06/04 03:50:20;;;;;;;7.67;4.07;;;;;;;-145.18;100.00;46605.69;5013379;28;20034;-74
2022/06/04 03:52:47;;;;;;;9.43;4.20;;;;;;;-145.18;100.00;46590.06;5012838;28;20283;-75
2022/06/04 03:55:14;;;;;;;10.30;4.67;;;;;;;-145.18;100.00;46601.78;5012599;28;20030;-75
2022/06/04 03:57:44;;;;;;;6.00;4.00;;;;;;;-145.18;100.00;46593.97;5012576;28;20263;-75
2022/06/04 04:00:10;;;;;;;6.83;3.80;;;;;;;-145.18;100.00;46609.59;5013146;28;20314;-74
2022/06/04 04:02:36;;;;;;;5.47;3.97;;;;;;;-145.18;100.00;46586.16;5012023;28;20042;-75
2022/06/04 04:05:06;;;;;;;8.97;4.07;;;;;;;-145.18;100.00;46599.84;5013026;28;20088;-74
2022/06/04 04:07:32;;;;;;;8.27;4.30;;;;;;;-145.18;100.00;46595.94;5012091;28;20044;-74
2022/06/04 04:09:57;;;;;;;6.83;4.00;;;;;;;-145.18;100.00;46586.16;5012609;28;20362;-74
2022/06/04 04:12:22;;;;;;;10.07;4.50;;;;;;;-145.18;100.00;46593.97;5011141;28;20037;-75
2022/06/04 04:14:48;;;;;;;9.73;4.43;;;;;;;-145.18;100.00;46578.34;4995438;28;20402;-75
2022/06/04 04:17:13;;;;;;;6.90;4.37;;;;;;;-145.18;100.00;46584.22;5009823;28;20034;-75
2022/06/04 04:19:38;;;;;;;7.60;4.10;;;;;;;-145.18;100.00;46592.03;5012466;28;20026;-75
2022/06/04 04:22:04;;;;;;;6.23;4.40;;;;;;;-145.18;100.00;46590.06;5012070;28;20072;-75
2022/06/04 04:24:29;;;;;;;6.77;4.50;;;;;;;-145.18;100.00;46582.25;5008266;28;20494;-75
2022/06/04 04:26:55;;;;;;;9.47;4.33;;;;;;;-145.18;100.00;46578.34;5008870;28;20112;-75
2022/06/04 04:29:20;;;;;;;7.93;4.10;;;;;;;-145.18;100.00;46574.44;5024303;28;20030;-75
2022/06/04 04:31:46;;;;;;;10.47;4.20;;;;;;;-145.18;100.00;46593.97;5012132;28;20486;-75
2022/06/04 04:34:11;;;;;;;8.70;4.00;;;;;;;-145.18;100.00;46593.97;5012008;28;20429;-75
2022/06/04 04:36:37;;;;;;;10.67;4.37;;;;;;;-145.18;100.00;46588.13;5018004;28;20038;-75
2022/06/04 04:39:03;;;;;;;9.40;4.27;;;;;;;-145.18;100.00;46584.22;5031128;28;20037;-75
2022/06/04 04:41:28;;;;;;;11.40;5.07;;;;;;;-145.18;100.00;46578.34;5017165;28;20091;-75
2022/06/04 04:43:53;;;;;;;10.13;5.07;;;;;;;-145.18;100.00;46586.16;5012073;28;20083;-75
2022/06/04 04:46:19;;;;;;;5.30;3.80;;;;;;;-145.18;100.00;46578.34;5023788;28;20139;-75
2022/06/04 04:48:46;;;;;;;7.57;4.30;;;;;;;-145.18;100.00;46584.22;5011412;28;20034;-75
2022/06/04 04:51:15;;;;;;;7.43;4.10;;;;;;;-145.18;100.00;46588.13;5010675;28;20034;-75
2022/06/04 04:53:41;;;;;;;9.20;4.50;;;;;;;-145.18;100.00;46570.53;4996340;28;20168;-74
2022/06/04 04:56:07;;;;;;;8.40;4.70;;;;;;;-145.18;100.00;46582.25;5005320;28;20279;-75
2022/06/04 04:58:32;;;;;;;9.33;4.73;;;;;;;-145.18;100.00;46578.34;5011912;28;20061;-74
2022/06/04 05:00:57;;;;;;;10.10;4.33;;;;;;;-145.18;100.00;46572.50;5011446;28;20040;-75
2022/06/04 05:03:23;;;;;;;8.60;4.63;;;;;;;-145.18;100.00;46578.34;5011337;28;20430;-75
2022/06/04 05:06:02;;;;;;;11.13;5.10;;;;;;;-145.18;100.00;46564.69;5011683;28;20030;-74
2022/06/04 05:08:28;;;;;;;8.87;4.57;;;;;;;-145.18;100.00;46582.25;5011452;28;20117;-75
2022/06/04 05:10:53;;;;;;;10.87;5.80;;;;;;;-145.18;100.00;46564.69;5011710;28;20112;-75
2022/06/04 05:13:19;;;;;;;8.97;4.37;;;;;;;-145.18;100.00;46572.50;5010420;28;20046;-74
2022/06/04 05:15:45;;;;;;;10.67;5.50;;;;;;;-145.18;100.00;46556.88;5011090;28;20026;-74
2022/06/04 05:18:11;;;;;;;8.43;4.33;;;;;;;-145.18;100.00;46572.50;5010642;28;20042;-74
2022/06/04 05:20:37;;;;;;;11.23;5.30;;;;;;;-145.18;100.00;46578.34;5008355;28;20044;-75
2022/06/04 05:23:02;;;;;;;9.23;5.30;;;;;;;-145.18;100.00;46570.53;4988462;28;20122;-76
2022/06/04 05:25:28;;;;;;;8.93;5.17;;;;;;;-145.18;100.00;46576.41;5004551;28;20026;-76
2022/06/04 05:27:53;;;;;;;8.17;5.07;;;;;;;-145.18;100.00;46560.78;4993736;28;20046;-77
2022/06/04 05:30:19;;;;;;;8.47;5.60;;;;;;;-145.18;100.00;46566.63;4991760;28;20118;-76
2022/06/04 05:32:44;;;;;;;12.73;5.87;;;;;;;-145.18;100.00;46568.59;4991418;28;20495;-76
2022/06/04 05:35:10;;;;;;;9.07;5.60;;;;;;;-145.18;100.00;46558.81;4998780;28;20394;-76
2022/06/04 05:37:36;;;;;;;9.33;5.90;;;;;;;-145.18;100.00;46560.78;5006565;28;20075;-76
2022/06/04 05:40:04;;;;;;;13.00;5.63;;;;;;;-145.18;100.00;46562.72;5010524;28;20026;-76
2022/06/04 05:42:29;;;;;;;10.50;5.77;;;;;;;-145.18;100.00;46568.59;5010259;28;20083;-76
2022/06/04 05:44:54;;;;;;;10.10;5.73;;;;;;;-145.18;100.00;46564.69;5007432;28;20030;-76
2022/06/04 05:47:20;;;;;;;14.33;6.17;;;;;;;-145.18;100.00;46564.69;5010728;28;20034;-77
2022/06/04 05:49:45;;;;;;;12.13;6.37;;;;;;;-145.18;100.00;46554.91;5011389;28;20115;-76
2022/06/04 05:52:10;;;;;;;10.77;6.87;;;;;;;-145.18;100.00;46564.69;5010763;28;20114;-77
2022/06/04 05:54:36;;;;;;;11.97;6.53;;;;;;;-145.18;100.00;46552.97;5010778;28;20061;-76
2022/06/04 05:57:01;;;;;;;13.83;6.53;;;;;;;-145.18;100.00;46554.91;5010477;28;20387;-76
2022/06/04 05:59:27;;;;;;;14.10;6.73;;;;;;;-145.18;100.00;46564.69;5010800;28;20125;-77
2022/06/04 06:01:52;;;;;;;12.33;6.53;;;;;;;-145.18;100.00;46560.78;5010646;28;20037;-76
2022/06/04 06:04:19;;;;;;;12.43;6.00;;;;;;;-145.18;100.00;46558.81;5010485;28;20486;-76
2022/06/04 06:06:47;;;;;;;15.10;6.00;;;;;;;-145.18;100.00;46556.88;5010670;28;20375;-76
2022/06/04 06:09:14;;;;;;;12.67;7.27;;;;;;;-145.18;100.00;46556.88;5009904;28;20084;-76
2022/06/04 06:11:41;;;;;;;9.90;6.43;;;;;;;-145.18;100.00;46551.00;5008285;28;20406;-76
2022/06/04 06:14:08;;;;;;;17.17;6.97;;;;;;;-145.18;100.00;46562.72;5020707;28;20037;-76
2022/06/04 06:16:35;;;;;;;18.03;6.40;;;;;;;-145.18;100.00;46549.06;5009864;28;20036;-76
2022/06/04 06:19:00;;;;;;;11.83;6.90;;;;;;;-145.18;100.00;46556.88;5009961;28;20489;-76
2022/06/04 06:21:29;;;;;;;10.80;6.17;;;;;;;-145.18;100.00;46554.91;5010095;28;20034;-75
2022/06/04 06:23:56;;;;;;;11.27;6.60;;;;;;;-145.18;100.00;46560.78;5009878;28;20029;-76
2022/06/04 06:26:31;;;;;;;9.97;6.50;;;;;;;-145.18;100.00;46566.63;5009918;28;20038;-76
2022/06/04 06:29:00;;;;;;;17.52;7.78;;;;;;;-145.18;100.00;46560.78;5010061;28;20030;-76
2022/06/04 06:31:27;;;;;;;12.37;6.87;;;;;;;-145.18;100.00;46549.06;5006189;28;20034;-76
2022/06/04 06:33:53;;;;;;;13.53;7.63;;;;;;;-145.18;100.00;46556.88;4990199;28;20034;-76
2022/06/04 06:36:19;;;;;;;12.90;6.73;;;;;;;-145.18;100.00;46551.00;4990506;28;20030;-76
2022/06/04 06:38:47;;;;;;;12.77;6.77;;;;;;;-145.18;100.00;46568.59;4990571;28;20042;-76
2022/06/04 06:41:15;;;;;;;15.00;6.43;;;;;;;-145.18;100.00;46554.91;4990548;28;20035;-76
2022/06/04 06:43:47;;;;;;;12.50;5.83;;;;;;;-145.18;100.00;46572.50;4990563;28;20081;-77
2022/06/04 06:46:19;;;;;;;20.80;7.70;;;;;;;-145.18;100.00;46549.06;4990490;28;20031;-78
2022/06/04 06:48:47;;;;;;;12.17;6.30;;;;;;;-145.18;100.00;46549.06;5001689;28;20030;-76
2022/06/04 06:51:14;;;;;;;11.30;7.67;;;;;;;-145.18;100.00;46554.91;5010186;28;20040;-75
2022/06/04 06:53:40;;;;;;;12.50;7.80;;;;;;;-145.18;100.00;46552.97;5009730;28;20105;-75
2022/06/04 06:56:18;;;;;;;15.27;7.23;;;;;;;-145.18;100.00;46558.81;5009216;28;20030;-75
2022/06/04 06:58:43;;;;;;;11.47;7.00;;;;;;;-145.18;100.00;46556.88;5009025;28;20030;-76
2022/06/04 07:01:09;;;;;;;11.60;7.00;;;;;;;-145.18;100.00;46543.19;5009199;28;20029;-76
2022/06/04 07:03:36;;;;;;;13.90;7.10;;;;;;;-145.18;100.00;46545.16;4990100;28;20081;-76
2022/06/04 07:06:03;;;;;;;13.97;7.13;;;;;;;-145.18;100.00;46554.91;4989312;28;20113;-75
2022/06/04 07:08:29;;;;;;;12.10;6.93;;;;;;;-145.18;100.00;46552.97;5008286;28;20030;-76
2022/06/04 07:10:54;;;;;;;11.73;6.70;;;;;;;-145.18;100.00;46558.81;5000709;28;20041;-75
2022/06/04 07:13:20;;;;;;;12.50;7.63;;;;;;;-145.18;100.00;46552.97;4997662;28;20035;-76
2022/06/04 07:15:45;;;;;;;17.27;7.63;;;;;;;-145.18;100.00;46556.88;5001079;28;20065;-75
2022/06/04 07:18:12;;;;;;;15.53;8.07;;;;;;;-145.18;100.00;46554.91;5000859;28;20108;-76
2022/06/04 07:20:38;;;;;;;15.23;7.50;;;;;;;-145.18;100.00;46564.69;4992915;28;20038;-76
2022/06/04 07:23:04;;;;;;;18.90;8.20;;;;;;;-145.18;100.00;46556.88;4993522;28;20037;-76
2022/06/04 07:25:29;;;;;;;11.50;7.13;;;;;;;-145.18;100.00;46570.53;4994054;28;20031;-76
2022/06/04 07:27:55;;;;;;;16.13;6.97;;;;;;;-145.18;100.00;46558.81;4993583;28;20134;-76
2022/06/04 07:30:20;;;;;;;15.83;7.63;;;;;;;-145.18;100.00;46574.44;4976193;28;20042;-76
2022/06/04 07:32:45;;;;;;;17.50;7.07;;;;;;;-145.18;100.00;46568.59;4992979;28;20073;-76
2022/06/04 07:35:11;;;;;;;13.37;6.83;;;;;;;-145.18;100.00;46564.69;4993606;28;20046;-76
2022/06/04 07:37:36;;;;;;;14.93;6.80;;;;;;;-145.18;100.00;46574.44;4994070;28;20044;-76
2022/06/04 07:40:02;;;;;;;12.50;6.73;;;;;;;-145.18;100.00;46578.34;4993400;28;20030;-76
2022/06/04 07:42:28;;;;;;;14.30;7.23;;;;;;;-145.18;100.00;46593.97;4993741;28;20125;-76
2022/06/04 07:44:53;;;;;;;14.47;7.33;;;;;;;-145.18;100.00;46597.88;4993690;28;20469;-76
2022/06/04 07:47:19;;;;;;;17.43;6.70;;;;;;;-145.18;100.00;46592.03;4993493;28;20045;-76
2022/06/04 07:49:44;;;;;;;14.20;6.57;;;;;;;-145.18;100.00;46609.59;4993051;28;20038;-76
2022/06/04 07:52:10;;;;;;;15.73;6.27;;;;;;;-145.18;100.00;46584.22;4993287;28;20030;-76
2022/06/04 07:54:35;;;;;;;12.67;7.47;;;;;;;-145.18;100.00;46609.59;4992276;28;20084;-75
2022/06/04 07:57:01;;;;;;;13.63;6.87;;;;;;;-145.18;100.00;46595.94;4993586;28;20037;-75
2022/06/04 07:59:26;;;;;;;10.27;6.30;;;;;;;-145.18;100.00;46615.47;4993262;28;20110;-75
2022/06/04 08:01:52;;;;;;;10.13;6.87;;;;;;;-145.18;100.00;46613.50;4993367;28;20041;-75
2022/06/04 08:04:18;;;;;;;16.67;6.97;;;;;;;-145.18;100.00;46597.88;4992127;28;20517;-75
2022/06/04 08:06:44;;;;;;;17.73;6.47;;;;;;;-145.18;100.00;46599.84;4997866;28;20486;-75
2022/06/04 08:09:09;;;;;;;10.43;6.17;;;;;;;-145.18;100.00;46586.16;5012227;28;20033;-75
2022/06/04 08:11:35;;;;;;;12.57;6.10;;;;;;;-145.18;100.00;46611.56;5012787;28;20068;-75
2022/06/04 08:14:17;;;;;;;11.93;6.13;;;;;;;-145.18;100.00;46593.97;5012419;28;20038;-73
2022/06/04 08:16:46;;;;;;;11.67;5.90;;;;;;;-145.18;100.00;46613.50;5012436;28;20029;-73
2022/06/04 08:19:13;;;;;;;14.07;6.77;;;;;;;-145.18;100.00;46617.41;5012346;28;20080;-73
2022/06/04 08:21:40;;;;;;;16.23;5.93;;;;;;;-145.18;100.00;46617.41;5012271;28;20558;-73
2022/06/04 08:24:07;;;;;;;11.80;5.60;;;;;;;-145.18;100.00;46613.50;5011897;28;20026;-73
2022/06/04 08:26:32;;;;;;;8.97;5.77;;;;;;;-145.18;100.00;46609.59;5011651;28;20030;-73
2022/06/04 08:28:58;;;;;;;11.17;6.37;;;;;;;-145.18;100.00;46621.31;5008310;28;20092;-73
2022/06/04 08:31:23;;;;;;;13.83;6.03;;;;;;;-145.18;100.00;46621.31;5008132;28;20029;-73
2022/06/04 08:33:49;;;;;;;12.10;5.53;;;;;;;-145.18;100.00;46631.09;5007653;28;20680;-73
2022/06/04 08:36:16;;;;;;;13.90;5.33;;;;;;;-145.18;100.00;46851.81;5007805;28;20049;-73
2022/06/04 08:38:42;;;;;;;12.07;5.67;;;;;;;-145.18;100.00;46740.47;5007649;28;20494;-73
2022/06/04 08:41:19;;;;;;;7.33;4.80;;;;;;;-145.18;100.00;47230.81;5007368;28;20069;-73
2022/06/04 08:43:49;;;;;;;9.47;5.03;;;;;;;-145.18;100.00;47234.72;5008106;28;20034;-73
2022/06/04 08:47:00;;;;;;;11.50;5.57;;;;;;;-145.18;100.00;47066.72;5011977;28;20030;-73
2022/06/04 08:49:31;;;;;;;9.47;4.90;;;;;;;-145.18;100.00;47195.66;5011866;28;20507;-73
2022/06/04 08:52:02;;;;;;;10.10;5.30;;;;;;;-145.18;100.00;47172.19;5011573;28;20040;-73
2022/06/04 08:57:32;;;;;;;12.83;5.40;;;;;;;-145.18;100.00;47150.72;5011538;28;20033;-73
2022/06/04 09:00:10;;;;;;;10.47;5.33;;;;;;;-145.18;100.00;47150.72;5011413;28;20036;-73
2022/06/04 09:02:56;;;;;;;7.93;4.90;;;;;;;-145.18;100.00;47185.88;5000100;28;20047;-73
2022/06/04 09:05:46;;;;;;;10.20;5.07;;;;;;;-145.18;100.00;47150.72;4991664;28;20034;-73
2022/06/04 09:08:17;;;;;;;11.30;5.00;;;;;;;-145.18;100.00;47146.81;5007575;28;20444;-73
2022/06/04 09:10:50;;;;;;;9.20;4.80;;;;;;;-145.18;100.00;47137.03;5011663;28;20053;-73
2022/06/04 09:13:31;;;;;;;9.57;5.20;;;;;;;-145.18;100.00;47142.91;5010304;28;20030;-73
2022/06/04 09:16:02;;;;;;;8.27;4.70;;;;;;;-145.18;100.00;47135.09;5011386;28;20030;-73
2022/06/04 09:18:36;;;;;;;8.53;4.70;;;;;;;-145.18;100.00;47144.84;5011142;28;20109;-73
2022/06/04 09:21:05;;;;;;;10.57;5.37;;;;;;;-145.18;100.00;47131.19;5011553;28;20106;-73
2022/06/04 09:23:34;;;;;;;8.93;4.70;;;;;;;-145.18;100.00;47125.31;5011130;28;20022;-73
2022/06/04 09:26:12;;;;;;;8.53;5.00;;;;;;;-145.18;100.00;47131.19;5010823;28;20069;-73
2022/06/04 09:28:47;;;;;;;9.97;5.10;;;;;;;-145.18;100.00;47144.84;5011049;28;20053;-73
2022/06/04 09:31:22;;;;;;;13.07;5.40;;;;;;;-145.18;100.00;47144.84;5011389;28;20030;-73
2022/06/04 09:33:53;;;;;;;13.07;5.95;;;;;;;-145.18;100.00;47160.47;5010776;28;20275;-73
2022/06/04 09:36:24;;;;;;;10.13;5.40;;;;;;;-145.18;100.00;47176.09;5011238;28;20037;-73
2022/06/04 09:39:00;;;;;;;9.50;5.13;;;;;;;-145.18;100.00;47133.13;5010803;28;20516;-73
2022/06/04 09:41:27;;;;;;;;;;;;;;;-145.18;100.00;47140.94;5011798;28;20521;-73
2022/06/04 09:44:00;;;;;;;11.27;5.50;;;;;;;-145.18;100.00;47150.72;5010356;28;19920;-73
2022/06/04 09:46:26;;;;;;;9.60;5.20;;;;;;;-145.18;100.00;47156.56;5010997;28;20065;-73
2022/06/04 09:48:53;;;;;;;8.23;5.33;;;;;;;-145.18;100.00;47131.19;5009986;28;20062;-73
2022/06/04 09:51:25;;;;;;;8.63;5.50;;;;;;;-145.18;100.00;47140.94;5010951;28;20038;-73
2022/06/04 09:54:02;;;;;;;10.47;5.53;;;;;;;-145.18;100.00;47137.03;5010542;28;20033;-73
2022/06/04 09:56:34;;;;;;;7.87;5.73;;;;;;;-145.18;100.00;47123.38;5010993;28;20467;-73
2022/06/04 09:59:20;;;;;;;11.43;5.60;;;;;;;-145.18;100.00;47146.81;5010414;28;20052;-73
2022/06/04 10:01:53;;;;;;;8.57;5.60;;;;;;;-145.18;100.00;47133.13;5010853;28;20674;-73
2022/06/04 10:04:18;;;;;;;8.00;5.60;;;;;;;-145.18;100.00;47113.59;5010164;28;20548;-73
2022/06/04 10:06:44;;;;;;;10.73;6.13;;;;;;;-145.18;100.00;47121.41;4999850;28;20065;-73
2022/06/04 10:12:15;;;;;;;10.73;6.47;;;;;;;-145.18;100.00;47129.22;4990902;28;20414;-73
2022/06/04 10:14:42;;;;;;;8.27;5.30;;;;;;;-145.18;100.00;47099.91;4990737;28;20041;-73
2022/06/04 10:17:20;;;;;;;16.47;5.60;;;;;;;-145.18;100.00;47101.88;4990661;28;20644;-73
2022/06/04 10:19:53;;;;;;;8.07;5.20;;;;;;;-145.18;100.00;47064.75;4990407;28;20028;-73
2022/06/04 10:22:19;;;;;;;8.43;5.23;;;;;;;-145.18;100.00;47088.19;5001618;28;20128;-73
2022/06/04 10:25:05;;;;;;;10.40;5.27;;;;;;;-145.18;100.00;47076.47;5009506;28;20038;-74
2022/06/04 10:28:03;;;;;;;8.40;5.80;;;;;;;-145.18;100.00;47088.19;5010840;28;20060;-73
2022/06/04 10:30:43;;;;;;;10.60;5.90;;;;;;;-145.18;100.00;47086.25;5010233;28;20496;-74
2022/06/04 10:33:33;;;;;;;9.93;6.03;;;;;;;-145.18;100.00;47060.84;5010026;28;20040;-74
2022/06/04 10:36:10;;;;;;;8.80;5.50;;;;;;;-145.18;100.00;47084.28;5010311;28;20076;-74
2022/06/04 10:38:38;;;;;;;9.57;5.37;;;;;;;-145.18;100.00;47074.53;5010237;28;20069;-74
2022/06/04 10:41:14;;;;;;;9.70;5.67;;;;;;;-145.18;100.00;47066.72;5009213;28;20034;-74
2022/06/04 10:44:12;;;;;;;10.27;4.97;;;;;;;-145.18;100.00;47062.81;5010049;28;20092;-74
2022/06/04 10:47:15;;;;;;;8.13;5.70;;;;;;;-145.18;100.00;47074.53;5010373;28;20084;-74
2022/06/04 10:50:03;;;;;;;11.37;5.30;;;;;;;-145.18;100.00;47072.56;5009913;28;20053;-74
2022/06/04 10:52:37;;;;;;;8.80;5.50;;;;;;;-145.18;100.00;47072.56;5010085;28;20118;-74
2022/06/04 10:55:21;;;;;;;8.13;5.67;;;;;;;-145.18;100.00;47078.44;5012062;28;20085;-74
2022/06/04 10:58:11;;;;;;;6.47;4.93;;;;;;;-145.18;100.00;47074.53;5014149;28;20052;-75
2022/06/04 11:00:47;;;;;;;8.53;5.87;;;;;;;-145.18;100.00;47066.72;5009893;28;20065;-74
2022/06/04 11:03:12;;;;;;;16.23;5.63;;;;;;;-145.18;100.00;47045.22;5010552;28;20050;-74
2022/06/04 11:05:43;;;;;;;8.87;5.63;;;;;;;-145.18;100.00;47055.00;5006051;28;20037;-75
2022/06/04 11:08:26;;;;;;;9.27;5.97;;;;;;;-145.18;100.00;47039.34;5010210;28;20076;-74
2022/06/04 11:11:06;;;;;;;7.23;5.10;;;;;;;-145.18;100.00;47031.53;5009948;28;20415;-75
2022/06/04 11:13:43;;;;;;;8.77;6.10;;;;;;;-145.18;100.00;47021.78;5009801;28;20037;-75
2022/06/04 11:16:15;;;;;;;11.07;5.60;;;;;;;-145.18;100.00;47010.06;5010667;28;20030;-75
2022/06/04 11:18:48;;;;;;;8.67;5.00;;;;;;;-145.18;100.00;47021.78;5009916;28;20037;-75
2022/06/04 11:21:23;;;;;;;9.30;4.90;;;;;;;-145.18;100.00;47013.97;5010171;28;20018;-75
2022/06/04 11:23:55;;;;;;;9.70;5.00;;;;;;;-145.18;100.00;47012.00;5012100;28;20169;-75
2022/06/04 11:26:27;;;;;;;8.40;5.00;;;;;;;-145.18;100.00;47012.00;5012342;28;20025;-75
2022/06/04 11:28:54;;;;;;;8.47;5.00;;;;;;;-145.18;100.00;47015.91;5012263;28;20025;-75
2022/06/04 11:31:40;;;;;;;11.17;5.10;;;;;;;-145.18;100.00;47010.06;5012507;28;20022;-75
2022/06/04 11:34:27;;;;;;;6.60;5.23;;;;;;;-145.18;100.00;47017.88;5012832;28;20087;-75